Schedule Details


Flight Number: CTN344
Departure: Franjo Tudman (LDZA) at 14:55
Arrival: Sarajevo (LQSA) at 15:45
Route: TEBLI L187 KOMAR L608 BOSNA

Weather Information
LDZA 072330Z 23003KT CAVOK 19/18 Q1018 NOSIG
LQSA 072300Z VRB02KT 8000 -RA SCT025 BKN040 17/17 Q1019
Schedule Frequency

Route Map